createdAt,value
2018-05-29T00:01:06.093Z,0
2018-05-29T00:02:16.081Z,0
2018-05-29T00:03:25.793Z,0
2018-05-29T00:04:35.770Z,0
2018-05-29T00:05:45.747Z,0
2018-05-29T00:06:55.466Z,0
2018-05-29T00:08:05.440Z,0
2018-05-29T00:09:15.444Z,0
2018-05-29T00:10:25.157Z,0
2018-05-29T00:11:35.130Z,0
2018-05-29T00:12:45.205Z,0
2018-05-29T00:13:55.194Z,0
2018-05-29T00:15:05.169Z,0
2018-05-29T00:16:14.895Z,0
2018-05-29T00:17:24.607Z,0
2018-05-29T00:18:34.585Z,0
2018-05-29T00:19:44.569Z,0
2018-05-29T00:20:54.289Z,0
2018-05-29T00:22:04.274Z,0
2018-05-29T00:23:13.743Z,0
2018-05-29T00:24:23.713Z,0
2018-05-29T00:25:33.693Z,0
2018-05-29T00:26:43.410Z,0
2018-05-29T00:27:53.385Z,0
2018-05-29T00:29:03.357Z,0
2018-05-29T00:30:13.069Z,0
2018-05-29T00:31:23.047Z,0
2018-05-29T00:32:32.759Z,0
2018-05-29T00:33:42.213Z,0
2018-05-29T00:34:51.927Z,0
2018-05-29T00:36:01.914Z,0
2018-05-29T00:37:11.882Z,0
2018-05-29T00:38:21.874Z,0
2018-05-29T00:39:31.584Z,0
2018-05-29T00:40:41.564Z,0
2018-05-29T00:41:51.534Z,0
2018-05-29T00:43:01.527Z,0
2018-05-29T00:44:11.520Z,0
2018-05-29T00:45:21.488Z,0
2018-05-29T00:46:31.465Z,0
2018-05-29T00:47:41.435Z,0
2018-05-29T00:48:51.159Z,0
2018-05-29T00:50:01.128Z,0
2018-05-29T00:51:11.111Z,0
2018-05-29T00:52:21.098Z,0
2018-05-29T00:53:30.819Z,0
2018-05-29T00:54:40.535Z,0
2018-05-29T00:55:50.251Z,0
2018-05-29T00:57:00.235Z,0
2018-05-29T00:58:10.367Z,0
2018-05-29T00:59:20.077Z,0
2018-05-29T01:00:29.792Z,0
2018-05-29T01:01:39.779Z,0
2018-05-29T01:02:49.760Z,0
2018-05-29T01:03:59.738Z,0
2018-05-29T01:05:09.714Z,0
2018-05-29T01:06:19.436Z,0
2018-05-29T01:07:29.149Z,0
2018-05-29T01:08:38.865Z,0
2018-05-29T01:09:48.833Z,0
2018-05-29T01:10:58.556Z,0
2018-05-29T01:12:08.521Z,0
2018-05-29T01:13:18.228Z,0
2018-05-29T01:14:28.209Z,0
2018-05-29T01:15:38.185Z,0
2018-05-29T01:16:47.905Z,0
2018-05-29T01:17:57.874Z,0
2018-05-29T01:19:07.864Z,0
2018-05-29T01:20:17.885Z,0
2018-05-29T01:21:27.602Z,0
2018-05-29T01:22:37.586Z,0
2018-05-29T01:23:47.297Z,0
2018-05-29T01:24:57.279Z,0
2018-05-29T01:26:07.007Z,0
2018-05-29T01:27:16.989Z,0
2018-05-29T01:28:26.970Z,0
2018-05-29T01:29:36.940Z,0
2018-05-29T01:30:46.647Z,0
2018-05-29T01:31:56.363Z,0
2018-05-29T01:33:06.409Z,0
2018-05-29T01:34:16.408Z,0
2018-05-29T01:35:26.383Z,0
2018-05-29T01:36:36.355Z,0
2018-05-29T01:37:46.326Z,0
2018-05-29T01:38:56.303Z,0
2018-05-29T01:40:06.283Z,0
2018-05-29T01:41:16.012Z,0
2018-05-29T01:42:25.731Z,0
2018-05-29T01:43:35.451Z,0
2018-05-29T01:44:45.179Z,0
2018-05-29T01:45:55.145Z,0
2018-05-29T01:47:05.121Z,0
2018-05-29T01:48:15.103Z,0
2018-05-29T01:49:25.097Z,0
2018-05-29T01:50:35.072Z,0
2018-05-29T01:51:44.785Z,0
2018-05-29T01:52:54.771Z,0
2018-05-29T01:54:04.741Z,0
2018-05-29T01:55:14.454Z,0
2018-05-29T01:56:24.433Z,0
2018-05-29T01:57:34.396Z,0
2018-05-29T01:58:44.370Z,0
2018-05-29T01:59:54.350Z,0
2018-05-29T02:01:04.083Z,0
2018-05-29T02:02:14.056Z,0
2018-05-29T02:03:24.051Z,0
2018-05-29T02:04:34.416Z,0
2018-05-29T02:05:43.789Z,0
2018-05-29T02:06:53.766Z,0
2018-05-29T02:08:03.738Z,0
2018-05-29T02:09:13.719Z,0
2018-05-29T02:10:23.707Z,0
2018-05-29T02:11:33.426Z,0
2018-05-29T02:12:43.142Z,0
2018-05-29T02:13:53.124Z,0
2018-05-29T02:15:02.844Z,0
2018-05-29T02:16:12.815Z,0
2018-05-29T02:17:22.797Z,0
2018-05-29T02:18:32.767Z,0
2018-05-29T02:19:41.975Z,0
2018-05-29T02:20:51.943Z,0
2018-05-29T02:22:01.915Z,0
2018-05-29T02:23:11.630Z,0
2018-05-29T02:24:21.354Z,0
2018-05-29T02:25:31.321Z,0
2018-05-29T02:26:40.521Z,0
2018-05-29T02:27:50.236Z,0
2018-05-29T02:29:00.217Z,0
2018-05-29T02:30:10.200Z,0
2018-05-29T02:31:20.197Z,0
2018-05-29T02:32:29.667Z,0
2018-05-29T02:33:39.673Z,0
2018-05-29T02:34:49.655Z,0
2018-05-29T02:35:59.628Z,0
2018-05-29T02:37:09.607Z,0
2018-05-29T02:38:19.579Z,0
2018-05-29T02:39:29.560Z,0
2018-05-29T02:40:39.530Z,0
2018-05-29T02:41:49.516Z,5
2018-05-29T02:42:59.519Z,5
2018-05-29T02:44:09.249Z,5
2018-05-29T02:45:19.239Z,5
2018-05-29T02:46:29.225Z,5
2018-05-29T02:47:39.206Z,5
2018-05-29T02:48:49.192Z,10
2018-05-29T02:49:59.171Z,10
2018-05-29T02:51:09.147Z,10
2018-05-29T02:52:18.862Z,10
2018-05-29T02:53:28.832Z,10
2018-05-29T02:54:38.543Z,15
2018-05-29T02:55:48.262Z,15
2018-05-29T02:56:58.246Z,15
2018-05-29T02:58:08.221Z,20
2018-05-29T02:59:18.188Z,20
2018-05-29T03:00:27.908Z,20
2018-05-29T03:01:37.629Z,25
2018-05-29T03:02:47.605Z,25
2018-05-29T03:03:57.593Z,25
2018-05-29T03:05:07.559Z,30
2018-05-29T03:06:17.013Z,30
2018-05-29T03:07:26.993Z,35
2018-05-29T03:08:36.985Z,40
2018-05-29T03:09:46.950Z,40
2018-05-29T03:10:56.929Z,40
2018-05-29T03:12:06.897Z,45
2018-05-29T03:13:16.870Z,45
2018-05-29T03:14:26.845Z,50
2018-05-29T03:15:36.554Z,50
2018-05-29T03:16:46.518Z,55
2018-05-29T03:17:56.491Z,55
2018-05-29T03:19:06.485Z,60
2018-05-29T03:20:16.455Z,60
2018-05-29T03:21:26.176Z,60
2018-05-29T03:22:36.153Z,60
2018-05-29T03:23:46.133Z,65
2018-05-29T03:24:56.115Z,65
2018-05-29T03:26:05.835Z,70
2018-05-29T03:27:15.552Z,70
2018-05-29T03:28:25.524Z,75
2018-05-29T03:29:35.509Z,75
2018-05-29T03:30:44.971Z,80
2018-05-29T03:31:54.957Z,85
2018-05-29T03:33:04.946Z,85
2018-05-29T03:34:14.933Z,90
2018-05-29T03:35:24.919Z,90
2018-05-29T03:36:34.888Z,95
2018-05-29T03:37:44.621Z,95
2018-05-29T03:38:54.598Z,100
2018-05-29T03:40:04.338Z,100
2018-05-29T03:41:14.058Z,100
2018-05-29T03:42:24.036Z,105
2018-05-29T03:43:33.793Z,105
2018-05-29T03:44:43.770Z,110
2018-05-29T03:45:53.743Z,110
2018-05-29T03:47:03.703Z,115
2018-05-29T03:48:13.156Z,115
2018-05-29T03:49:22.863Z,120
2018-05-29T03:50:32.570Z,120
2018-05-29T03:51:42.561Z,125
2018-05-29T03:52:52.274Z,125
2018-05-29T03:54:01.994Z,130
2018-05-29T03:55:11.966Z,130
2018-05-29T03:56:21.946Z,135
2018-05-29T03:57:31.924Z,135
2018-05-29T03:58:41.635Z,135
2018-05-29T03:59:51.592Z,140
2018-05-29T04:01:01.306Z,140
2018-05-29T04:02:11.293Z,145
2018-05-29T04:03:21.265Z,145
2018-05-29T04:04:31.232Z,145
2018-05-29T04:05:41.209Z,150
2018-05-29T04:06:51.171Z,150
2018-05-29T04:08:01.143Z,155
2018-05-29T04:09:10.857Z,155
2018-05-29T04:10:20.574Z,155
2018-05-29T04:11:30.555Z,160
2018-05-29T04:12:40.523Z,160
2018-05-29T04:13:49.996Z,165
2018-05-29T04:14:59.984Z,165
2018-05-29T04:16:09.957Z,165
2018-05-29T04:17:19.666Z,170
2018-05-29T04:18:29.645Z,170
2018-05-29T04:19:39.617Z,170
2018-05-29T04:20:49.611Z,175
2018-05-29T04:21:59.336Z,175
2018-05-29T04:23:09.310Z,180
2018-05-29T04:24:19.278Z,180
2018-05-29T04:25:29.008Z,180
2018-05-29T04:26:38.467Z,185
2018-05-29T04:27:48.180Z,185
2018-05-29T04:28:57.907Z,185
2018-05-29T04:30:07.623Z,190
2018-05-29T04:31:17.329Z,190
2018-05-29T04:32:26.781Z,190
2018-05-29T04:33:36.499Z,190
2018-05-29T04:34:46.207Z,195
2018-05-29T04:35:55.920Z,195
2018-05-29T04:37:05.893Z,195
2018-05-29T04:38:15.863Z,200
2018-05-29T04:39:25.839Z,200
2018-05-29T04:40:35.828Z,200
2018-05-29T04:41:45.537Z,205
2018-05-29T04:42:55.515Z,205
2018-05-29T04:44:05.227Z,205
2018-05-29T04:45:15.206Z,205
2018-05-29T04:46:25.193Z,210
2018-05-29T04:47:35.179Z,210
2018-05-29T04:48:44.896Z,210
2018-05-29T04:49:54.457Z,210
2018-05-29T04:51:04.464Z,210
2018-05-29T04:52:14.194Z,210
2018-05-29T04:53:24.188Z,210
2018-05-29T04:54:33.898Z,215
2018-05-29T04:55:43.882Z,215
2018-05-29T04:56:53.632Z,215
2018-05-29T04:58:03.591Z,220
2018-05-29T04:59:13.573Z,220
2018-05-29T05:00:23.554Z,220
2018-05-29T05:01:33.551Z,220
2018-05-29T05:02:43.750Z,220
2018-05-29T05:03:53.471Z,225
2018-05-29T05:05:03.467Z,225
2018-05-29T05:06:13.447Z,225
2018-05-29T05:07:22.904Z,225
2018-05-29T05:08:32.638Z,230
2018-05-29T05:09:42.366Z,230
2018-05-29T05:10:51.818Z,230
2018-05-29T05:12:01.822Z,230
2018-05-29T05:13:11.812Z,230
2018-05-29T05:14:21.787Z,235
2018-05-29T05:15:31.760Z,235
2018-05-29T05:16:41.477Z,235
2018-05-29T05:17:51.436Z,235
2018-05-29T05:19:01.150Z,235
2018-05-29T05:20:10.939Z,240
2018-05-29T05:21:20.920Z,240
2018-05-29T05:22:30.111Z,240
2018-05-29T05:23:40.071Z,240
2018-05-29T05:24:50.052Z,240
2018-05-29T05:25:59.774Z,245
2018-05-29T05:27:09.783Z,245
2018-05-29T05:28:19.776Z,245
2018-05-29T05:29:29.814Z,245
2018-05-29T05:30:39.924Z,245
2018-05-29T05:31:49.953Z,250
2018-05-29T05:32:59.959Z,250
2018-05-29T05:34:09.952Z,250
2018-05-29T05:35:19.967Z,250
2018-05-29T05:36:29.954Z,255
2018-05-29T05:37:39.960Z,255
2018-05-29T05:38:49.937Z,255
2018-05-29T05:40:00.160Z,255
2018-05-29T05:41:09.894Z,255
2018-05-29T05:42:19.631Z,260
2018-05-29T05:43:29.612Z,260
2018-05-29T05:44:39.333Z,260
2018-05-29T05:45:49.316Z,260
2018-05-29T05:46:59.314Z,260
2018-05-29T05:48:08.793Z,260
2018-05-29T05:49:18.778Z,260
2018-05-29T05:50:28.503Z,265
2018-05-29T05:51:38.483Z,265
2018-05-29T05:52:48.728Z,265
2018-05-29T05:53:58.453Z,265
2018-05-29T05:55:08.175Z,265
2018-05-29T05:56:17.904Z,265
2018-05-29T05:57:27.880Z,265
2018-05-29T05:58:38.208Z,265
2018-05-29T05:59:48.182Z,265
2018-05-29T06:00:58.156Z,270
2018-05-29T06:02:08.136Z,270
2018-05-29T06:03:17.871Z,270
2018-05-29T06:04:27.926Z,270
2018-05-29T06:05:38.013Z,270
2018-05-29T06:06:47.999Z,270
2018-05-29T06:07:58.015Z,270
2018-05-29T06:09:07.996Z,270
2018-05-29T06:10:18.011Z,270
2018-05-29T06:11:28.008Z,275
2018-05-29T06:12:37.997Z,275
2018-05-29T06:13:47.732Z,275
2018-05-29T06:14:57.713Z,275
2018-05-29T06:16:07.538Z,280
2018-05-29T06:17:17.552Z,280
2018-05-29T06:18:27.536Z,280
2018-05-29T06:19:37.256Z,285
2018-05-29T06:20:47.017Z,285
2018-05-29T06:21:57.078Z,285
2018-05-29T06:23:06.563Z,285
2018-05-29T06:24:16.588Z,290
2018-05-29T06:25:26.582Z,290
2018-05-29T06:26:36.553Z,290
2018-05-29T06:27:46.554Z,295
2018-05-29T06:28:56.570Z,295
2018-05-29T06:30:06.048Z,300
2018-05-29T06:31:16.033Z,295
2018-05-29T06:32:26.019Z,295
2018-05-29T06:33:36.007Z,300
2018-05-29T06:34:45.734Z,300
2018-05-29T06:35:55.465Z,300
2018-05-29T06:37:05.475Z,300
2018-05-29T06:38:15.574Z,300
2018-05-29T06:39:25.558Z,300
2018-05-29T06:40:35.561Z,300
2018-05-29T06:41:45.549Z,305
2018-05-29T06:42:55.268Z,305
2018-05-29T06:44:05.315Z,305
2018-05-29T06:45:15.709Z,305
2018-05-29T06:46:25.715Z,305
2018-05-29T06:47:35.436Z,305
2018-05-29T06:48:45.430Z,305
2018-05-29T06:49:55.138Z,305
2018-05-29T06:51:05.130Z,305
2018-05-29T06:52:14.620Z,305
2018-05-29T06:53:24.596Z,305
2018-05-29T06:54:34.326Z,310
2018-05-29T06:55:44.317Z,310
2018-05-29T06:56:54.306Z,310
2018-05-29T06:58:04.305Z,310
2018-05-29T06:59:14.026Z,310
2018-05-29T07:00:24.012Z,310
2018-05-29T07:01:33.993Z,310
2018-05-29T07:02:43.755Z,310
2018-05-29T07:03:53.871Z,310
2018-05-29T07:05:03.370Z,310
2018-05-29T07:06:13.370Z,315
2018-05-29T07:07:23.102Z,315
2018-05-29T07:08:33.090Z,315
2018-05-29T07:09:43.074Z,315
2018-05-29T07:10:52.813Z,315
2018-05-29T07:12:02.813Z,315
2018-05-29T07:13:12.287Z,315
2018-05-29T07:14:22.359Z,315
2018-05-29T07:15:32.335Z,320
2018-05-29T07:16:42.307Z,320
2018-05-29T07:17:52.308Z,320
2018-05-29T07:19:02.030Z,320
2018-05-29T07:20:11.764Z,320
2018-05-29T07:21:21.481Z,320
2018-05-29T07:22:31.211Z,320
2018-05-29T07:23:41.210Z,320
2018-05-29T07:24:51.417Z,325
2018-05-29T07:26:01.402Z,325
2018-05-29T07:27:11.437Z,325
2018-05-29T07:28:21.434Z,325
2018-05-29T07:29:31.430Z,325
2018-05-29T07:30:41.445Z,325
2018-05-29T07:31:51.437Z,325
2018-05-29T07:33:01.185Z,330
2018-05-29T07:34:10.657Z,330
2018-05-29T07:35:20.641Z,330
2018-05-29T07:36:30.404Z,330
2018-05-29T07:37:40.174Z,330
2018-05-29T07:38:50.233Z,330
2018-05-29T07:40:00.232Z,330
2018-05-29T07:41:09.703Z,330
2018-05-29T07:42:19.433Z,330
2018-05-29T07:43:29.437Z,330
2018-05-29T07:44:39.206Z,335
2018-05-29T07:45:48.922Z,335
2018-05-29T07:46:58.920Z,335
2018-05-29T07:48:08.672Z,335
2018-05-29T07:49:18.910Z,340
2018-05-29T07:50:28.909Z,335
2018-05-29T07:51:38.919Z,335
2018-05-29T07:52:48.661Z,335
2018-05-29T07:53:58.706Z,335
2018-05-29T07:55:08.803Z,335
2018-05-29T07:56:18.806Z,335
2018-05-29T07:57:28.496Z,335
2018-05-29T07:58:38.488Z,335
2018-05-29T07:59:48.481Z,335
2018-05-29T08:00:58.483Z,340
2018-05-29T08:02:08.474Z,340
2018-05-29T08:03:18.481Z,340
2018-05-29T08:04:28.497Z,340
2018-05-29T08:05:38.257Z,340
2018-05-29T08:06:48.041Z,340
2018-05-29T08:07:58.057Z,345
2018-05-29T08:09:08.083Z,340
2018-05-29T08:10:17.831Z,340
2018-05-29T08:11:27.837Z,345
2018-05-29T08:12:37.846Z,345
2018-05-29T08:13:47.593Z,345
2018-05-29T08:14:57.356Z,345
2018-05-29T08:16:07.338Z,350
2018-05-29T08:17:17.337Z,350
2018-05-29T08:18:27.080Z,350
2018-05-29T08:19:37.069Z,350
2018-05-29T08:20:46.826Z,350
2018-05-29T08:21:56.884Z,350
2018-05-29T08:23:06.876Z,350
2018-05-29T08:24:16.616Z,355
2018-05-29T08:25:26.377Z,355
2018-05-29T08:26:36.415Z,355
2018-05-29T08:27:46.662Z,355
2018-05-29T08:28:56.775Z,365
2018-05-29T08:30:06.805Z,595
2018-05-29T08:31:16.901Z,1080
2018-05-29T08:32:26.364Z,1210
2018-05-29T08:33:36.413Z,1175
2018-05-29T08:34:46.445Z,1285
2018-05-29T08:35:56.192Z,1255
2018-05-29T08:37:05.981Z,1265
2018-05-29T08:38:15.753Z,1275
2018-05-29T08:39:25.883Z,1350
2018-05-29T08:40:35.617Z,1365
2018-05-29T08:41:45.608Z,1140
2018-05-29T08:42:55.079Z,1210
2018-05-29T08:44:05.091Z,1305
2018-05-29T08:45:14.839Z,1320
2018-05-29T08:46:24.512Z,1360
2018-05-29T08:47:34.539Z,1390
2018-05-29T08:48:44.269Z,1360
2018-05-29T08:49:54.250Z,1340
2018-05-29T08:51:04.257Z,1435
2018-05-29T08:52:14.255Z,1475
2018-05-29T08:53:24.262Z,1450
2018-05-29T08:54:34.267Z,1350
2018-05-29T08:55:44.276Z,1490
2018-05-29T08:56:54.473Z,1565
2018-05-29T08:58:04.486Z,1490
2018-05-29T08:59:14.227Z,1625
2018-05-29T09:00:24.227Z,1435
2018-05-29T09:01:34.211Z,1600
2018-05-29T09:02:44.269Z,1595
2018-05-29T09:03:54.837Z,1575
2018-05-29T09:05:04.890Z,1535
2018-05-29T09:06:14.945Z,1570
2018-05-29T09:07:24.945Z,1630
2018-05-29T09:08:34.956Z,1470
2018-05-29T09:09:44.696Z,1565
2018-05-29T09:10:54.791Z,1705
2018-05-29T09:12:05.023Z,1705
2018-05-29T09:13:14.749Z,1680
2018-05-29T09:14:24.760Z,1705
2018-05-29T09:15:34.769Z,1815
2018-05-29T09:16:44.759Z,1735
2018-05-29T09:17:54.759Z,1705
2018-05-29T09:19:04.755Z,1775
2018-05-29T09:20:14.986Z,1675
2018-05-29T09:21:24.473Z,1540
2018-05-29T09:22:34.465Z,1585
2018-05-29T09:23:44.468Z,1680
2018-05-29T09:24:54.481Z,1715
2018-05-29T09:26:04.565Z,1785
2018-05-29T09:27:14.624Z,1900
2018-05-29T09:28:24.619Z,1860
2018-05-29T09:29:34.723Z,1830
2018-05-29T09:30:44.496Z,1930
2018-05-29T09:31:54.291Z,1920
2018-05-29T09:33:04.306Z,1870
2018-05-29T09:34:14.287Z,1900
2018-05-29T09:35:24.325Z,1975
2018-05-29T09:36:34.030Z,1865
2018-05-29T09:37:44.084Z,1820
2018-05-29T09:38:54.192Z,1955
2018-05-29T09:40:03.983Z,1975
2018-05-29T09:41:13.999Z,2030
2018-05-29T09:42:24.011Z,1995
2018-05-29T09:43:33.788Z,2010
2018-05-29T09:44:43.606Z,1980
2018-05-29T09:45:54.055Z,2005
2018-05-29T09:47:03.820Z,2135
2018-05-29T09:48:13.648Z,2120
2018-05-29T09:49:23.405Z,2115
2018-05-29T09:50:32.869Z,2140
2018-05-29T09:51:42.879Z,2105
2018-05-29T09:52:52.731Z,2105
2018-05-29T09:54:02.723Z,2125
2018-05-29T09:55:12.514Z,2175
2018-05-29T09:56:22.272Z,2105
2018-05-29T09:57:32.285Z,2055
2018-05-29T09:58:41.765Z,2135
2018-05-29T09:59:51.507Z,2195
2018-05-29T10:01:00.987Z,2190
2018-05-29T10:02:10.731Z,2120
2018-05-29T10:03:20.728Z,2375
2018-05-29T10:04:30.479Z,2475
2018-05-29T10:05:40.508Z,2290
2018-05-29T10:06:50.773Z,2310
2018-05-29T10:08:00.516Z,2300
2018-05-29T10:09:10.514Z,2255
2018-05-29T10:10:20.272Z,2280
2018-05-29T10:11:30.239Z,2295
2018-05-29T10:12:39.965Z,2285
2018-05-29T10:13:50.026Z,2320
2018-05-29T10:14:59.770Z,2365
2018-05-29T10:16:09.774Z,2320
2018-05-29T10:17:19.556Z,2280
2018-05-29T10:18:29.578Z,2395
2018-05-29T10:19:39.563Z,2645
2018-05-29T10:20:49.284Z,2605
2018-05-29T10:21:59.010Z,2335
2018-05-29T10:23:09.014Z,2380
2018-05-29T10:24:19.014Z,2430
2018-05-29T10:25:28.485Z,2410
2018-05-29T10:26:38.225Z,2505
2018-05-29T10:27:48.228Z,2435
2018-05-29T10:28:58.245Z,2355
2018-05-29T10:30:08.277Z,2445
2018-05-29T10:31:18.306Z,2505
2018-05-29T10:32:28.300Z,2500
2018-05-29T10:33:38.098Z,2465
2018-05-29T10:34:48.102Z,2315
2018-05-29T10:35:58.138Z,2285
2018-05-29T10:37:08.133Z,2440
2018-05-29T10:38:18.137Z,2500
2018-05-29T10:39:28.139Z,2565
2018-05-29T10:40:38.141Z,2740
2018-05-29T10:41:47.906Z,2685
2018-05-29T10:42:57.893Z,2575
2018-05-29T10:44:07.629Z,2530
2018-05-29T10:45:17.641Z,2575
2018-05-29T10:46:27.656Z,2600
2018-05-29T10:47:37.668Z,2660
2018-05-29T10:48:47.663Z,2655
2018-05-29T10:49:57.427Z,2595
2018-05-29T10:51:07.179Z,2615
2018-05-29T10:52:17.181Z,2640
2018-05-29T10:53:27.201Z,2545
2018-05-29T10:54:37.269Z,2570
2018-05-29T10:55:47.307Z,2720
2018-05-29T10:56:57.320Z,2840
2018-05-29T10:58:07.337Z,2840
2018-05-29T10:59:17.637Z,2790
2018-05-29T11:00:27.392Z,2775
2018-05-29T11:01:37.382Z,2725
2018-05-29T11:02:47.128Z,2710
2018-05-29T11:03:56.886Z,2715
2018-05-29T11:05:06.896Z,2675
2018-05-29T11:06:16.911Z,2660
2018-05-29T11:07:26.387Z,2700
2018-05-29T11:08:36.440Z,2755
2018-05-29T11:09:46.455Z,2825
2018-05-29T11:10:56.194Z,2890
2018-05-29T11:12:05.938Z,3000
2018-05-29T11:13:15.937Z,3055
2018-05-29T11:14:26.168Z,2950
2018-05-29T11:15:36.171Z,2890
2018-05-29T11:16:45.922Z,2910
2018-05-29T11:17:55.687Z,2890
2018-05-29T11:19:05.694Z,2860
2018-05-29T11:20:16.052Z,2820
2018-05-29T11:21:26.060Z,2790
2018-05-29T11:22:36.054Z,2710
2018-05-29T11:23:45.804Z,2765
2018-05-29T11:24:55.822Z,2840
2018-05-29T11:26:05.848Z,2900
2018-05-29T11:27:15.849Z,2950
2018-05-29T11:28:25.604Z,2950
2018-05-29T11:29:35.350Z,2945
2018-05-29T11:30:45.097Z,2945
2018-05-29T11:31:55.091Z,2920
2018-05-29T11:33:05.073Z,2975
2018-05-29T11:34:15.075Z,3025
2018-05-29T11:35:25.090Z,3200
2018-05-29T11:36:34.817Z,3350
2018-05-29T11:37:44.815Z,3185
2018-05-29T11:38:54.816Z,2995
2018-05-29T11:40:04.563Z,3015
2018-05-29T11:41:14.305Z,3020
2018-05-29T11:42:24.322Z,2905
2018-05-29T11:43:34.494Z,2900
2018-05-29T11:44:44.510Z,2965
2018-05-29T11:45:54.518Z,2985
2018-05-29T11:47:04.008Z,3090
2018-05-29T11:48:13.760Z,3250
2018-05-29T11:49:23.488Z,3120
2018-05-29T11:50:33.494Z,2935
2018-05-29T11:51:43.240Z,2825
2018-05-29T11:52:53.002Z,2955
2018-05-29T11:54:02.737Z,3185
2018-05-29T11:55:12.759Z,3240
2018-05-29T11:56:22.762Z,3190
2018-05-29T11:57:32.781Z,3190
2018-05-29T11:58:42.548Z,3205
2018-05-29T11:59:52.560Z,3180
2018-05-29T12:01:02.068Z,3085
2018-05-29T12:02:12.084Z,3060
2018-05-29T12:03:22.075Z,3130
2018-05-29T12:04:32.055Z,3165
2018-05-29T12:05:41.791Z,3180
2018-05-29T12:06:51.786Z,3150
2018-05-29T12:08:01.270Z,3135
2018-05-29T12:09:10.733Z,3235
2018-05-29T12:10:20.728Z,3260
2018-05-29T12:11:30.730Z,3205
2018-05-29T12:12:40.515Z,3205
2018-05-29T12:13:50.517Z,3285
2018-05-29T12:15:00.530Z,3295
2018-05-29T12:16:10.591Z,3215
2018-05-29T12:17:20.586Z,3215
2018-05-29T12:18:30.597Z,3260
2018-05-29T12:19:40.366Z,3285
2018-05-29T12:20:50.384Z,3180
2018-05-29T12:22:00.395Z,3090
2018-05-29T12:23:10.144Z,3095
2018-05-29T12:24:19.895Z,3145
2018-05-29T12:25:29.905Z,3135
2018-05-29T12:26:39.661Z,3220
2018-05-29T12:27:49.694Z,3325
2018-05-29T12:28:59.691Z,3360
2018-05-29T12:30:09.455Z,3295
2018-05-29T12:31:19.453Z,3220
2018-05-29T12:32:29.551Z,3220
2018-05-29T12:33:39.609Z,3265
2018-05-29T12:34:49.360Z,3340
2018-05-29T12:35:59.359Z,3350
2018-05-29T12:37:09.342Z,3280
2018-05-29T12:38:19.084Z,3255
2018-05-29T12:39:28.831Z,3250
2018-05-29T12:40:38.836Z,3225
2018-05-29T12:41:48.840Z,3260
2018-05-29T12:42:58.828Z,3355
2018-05-29T12:44:08.832Z,3480
2018-05-29T12:45:18.855Z,3405
2018-05-29T12:46:29.343Z,3275
2018-05-29T12:47:39.344Z,3275
2018-05-29T12:48:49.329Z,3200
2018-05-29T12:49:59.065Z,3235
2018-05-29T12:51:09.075Z,3355
2018-05-29T12:52:18.551Z,3365
2018-05-29T12:53:28.393Z,3295
2018-05-29T12:54:38.385Z,3350
2018-05-29T12:55:48.379Z,3460
2018-05-29T12:56:58.396Z,3460
2018-05-29T12:58:08.396Z,3415
2018-05-29T12:59:18.579Z,3380
2018-05-29T13:00:28.578Z,3305
2018-05-29T13:01:38.321Z,3255
2018-05-29T13:02:48.327Z,3295
2018-05-29T13:03:58.349Z,3320
2018-05-29T13:05:08.104Z,3365
2018-05-29T13:06:18.117Z,3420
2018-05-29T13:07:28.140Z,3435
2018-05-29T13:08:37.890Z,3405
2018-05-29T13:09:47.893Z,3320
2018-05-29T13:10:57.906Z,3290
2018-05-29T13:12:07.646Z,3350
2018-05-29T13:13:17.677Z,3410
2018-05-29T13:14:27.715Z,3430
2018-05-29T13:15:37.713Z,3385
2018-05-29T13:16:48.008Z,3350
2018-05-29T13:17:58.019Z,3305
2018-05-29T13:19:07.756Z,3280
2018-05-29T13:20:17.738Z,3310
2018-05-29T13:21:27.727Z,3330
2018-05-29T13:22:37.646Z,3290
2018-05-29T13:23:47.479Z,3340
2018-05-29T13:24:57.207Z,3375
2018-05-29T13:26:06.936Z,3380
2018-05-29T13:27:16.474Z,3355
2018-05-29T13:28:26.481Z,3310
2018-05-29T13:29:36.491Z,3265
2018-05-29T13:30:46.498Z,3140
2018-05-29T13:31:56.241Z,3105
2018-05-29T13:33:06.235Z,3175
2018-05-29T13:34:16.240Z,3235
2018-05-29T13:35:26.484Z,3270
2018-05-29T13:36:36.488Z,3235
2018-05-29T13:37:46.479Z,3250
2018-05-29T13:38:56.508Z,3325
2018-05-29T13:40:06.523Z,3370
2018-05-29T13:41:16.274Z,3210
2018-05-29T13:42:25.755Z,3090
2018-05-29T13:43:35.499Z,3200
2018-05-29T13:44:45.297Z,3305
2018-05-29T13:45:55.045Z,3260
2018-05-29T13:47:04.780Z,3225
2018-05-29T13:48:14.524Z,3215
2018-05-29T13:49:24.675Z,3220
2018-05-29T13:50:34.416Z,3145
2018-05-29T13:51:44.440Z,3115
2018-05-29T13:52:54.447Z,3205
2018-05-29T13:54:04.473Z,3215
2018-05-29T13:55:14.476Z,3180
2018-05-29T13:56:24.519Z,3145
2018-05-29T13:57:34.530Z,3220
2018-05-29T13:58:44.536Z,3270
2018-05-29T13:59:54.706Z,3270
2018-05-29T14:01:04.727Z,3155
2018-05-29T14:02:14.728Z,3055
2018-05-29T14:03:24.852Z,3015
2018-05-29T14:04:34.848Z,3040
2018-05-29T14:05:44.877Z,2970
2018-05-29T14:06:54.647Z,2920
2018-05-29T14:08:04.408Z,2965
2018-05-29T14:09:14.245Z,3065
2018-05-29T14:10:24.234Z,3040
2018-05-29T14:11:34.011Z,3040
2018-05-29T14:12:44.002Z,3015
2018-05-29T14:13:53.759Z,2970
2018-05-29T14:15:04.018Z,2865
2018-05-29T14:16:13.509Z,2870
2018-05-29T14:17:23.530Z,2930
2018-05-29T14:18:33.544Z,3055
2018-05-29T14:19:43.342Z,3080
2018-05-29T14:20:53.101Z,3005
2018-05-29T14:22:03.093Z,2970
2018-05-29T14:23:13.116Z,3030
2018-05-29T14:24:23.126Z,3050
2018-05-29T14:25:32.881Z,3025
2018-05-29T14:26:42.682Z,2960
2018-05-29T14:27:52.683Z,2900
2018-05-29T14:29:02.677Z,2830
2018-05-29T14:30:12.685Z,2755
2018-05-29T14:31:22.433Z,2805
2018-05-29T14:32:32.445Z,2865
2018-05-29T14:33:42.494Z,2845
2018-05-29T14:34:52.233Z,2845
2018-05-29T14:36:02.213Z,2840
2018-05-29T14:37:12.218Z,2785
2018-05-29T14:38:22.222Z,2805
2018-05-29T14:39:32.239Z,2850
2018-05-29T14:40:41.986Z,2920
2018-05-29T14:41:51.737Z,2880
2018-05-29T14:43:01.485Z,2915
2018-05-29T14:44:12.037Z,2900
2018-05-29T14:45:21.831Z,2825
2018-05-29T14:46:31.572Z,2885
2018-05-29T14:47:41.566Z,2880
2018-05-29T14:48:51.305Z,2810
2018-05-29T14:50:01.320Z,2810
2018-05-29T14:51:11.574Z,2775
2018-05-29T14:52:21.747Z,2700
2018-05-29T14:53:31.806Z,2695
2018-05-29T14:54:41.822Z,2730
2018-05-29T14:55:51.845Z,2650
2018-05-29T14:57:01.850Z,2630
2018-05-29T14:58:11.839Z,2640
2018-05-29T14:59:21.891Z,2635
2018-05-29T15:00:31.890Z,2660
2018-05-29T15:01:41.626Z,2725
2018-05-29T15:02:51.615Z,2675
2018-05-29T15:04:01.605Z,2630
2018-05-29T15:05:11.356Z,2650
2018-05-29T15:06:21.389Z,2640
2018-05-29T15:07:31.401Z,2620
2018-05-29T15:08:41.398Z,2540
2018-05-29T15:09:51.142Z,2490
2018-05-29T15:11:01.144Z,2480
2018-05-29T15:12:10.618Z,2485
2018-05-29T15:13:20.626Z,2570
2018-05-29T15:14:30.634Z,2605
2018-05-29T15:15:40.636Z,2545
2018-05-29T15:16:50.649Z,2465
2018-05-29T15:18:00.134Z,2315
2018-05-29T15:19:09.886Z,2340
2018-05-29T15:20:19.888Z,2515
2018-05-29T15:21:29.907Z,2470
2018-05-29T15:22:39.627Z,2450
2018-05-29T15:23:49.619Z,2430
2018-05-29T15:24:59.847Z,2445
2018-05-29T15:26:09.972Z,2445
2018-05-29T15:27:19.977Z,2365
2018-05-29T15:28:29.985Z,2345
2018-05-29T15:29:39.982Z,2330
2018-05-29T15:30:50.045Z,2335
2018-05-29T15:32:00.044Z,2395
2018-05-29T15:33:09.790Z,2370
2018-05-29T15:34:19.816Z,2285
2018-05-29T15:35:29.545Z,2310
2018-05-29T15:36:39.550Z,2320
2018-05-29T15:37:49.554Z,2285
2018-05-29T15:38:59.557Z,2360
2018-05-29T15:40:09.077Z,2480
2018-05-29T15:41:18.890Z,2370
2018-05-29T15:42:28.879Z,2245
2018-05-29T15:43:38.866Z,2220
2018-05-29T15:44:48.951Z,2215
2018-05-29T15:45:58.434Z,2195
2018-05-29T15:47:08.429Z,2190
2018-05-29T15:48:18.418Z,2180
2018-05-29T15:49:28.417Z,2145
2018-05-29T15:50:38.163Z,2165
2018-05-29T15:51:47.396Z,2160
2018-05-29T15:52:57.576Z,2125
2018-05-29T15:54:07.568Z,2080
2018-05-29T15:55:17.560Z,2085
2018-05-29T15:56:27.562Z,2095
2018-05-29T15:57:37.302Z,2100
2018-05-29T15:58:47.420Z,2055
2018-05-29T15:59:57.419Z,2000
2018-05-29T16:01:07.435Z,2020